Tiempo atmosférico en la estación meteorológica de Madrid, Madrid (667 m.)



Fecha
DESCASC
Temp. máxima en grados centígrados (hora)
DESCASC
Temp. mínima en grados centígrados (hora)
DESCASC
Temp. media en grados centígrados
DESCASC
Racha de viento máxima en m/sg (hora)
DESCASC
Velocidad máxima media en intervalos de 10 minutos(hora)
DESCASC
Precipitaciones diarias en mm
DESCASC
Precipitaciones de 00:00 a 06:00 en mm
DESCASC
Precipitaciones de 06:00 a 12:00 en mm
DESCASC
Precipitaciones de 12:00 a 18:00 en mm
DESCASC
Precipitaciones de 18:00 a 24:00 en mm
DESCASC

Gráficas

Temp. máximas Temp. mínimas Temp. medias Precipitaciones Rachas de viento máximas Velocidades máximas media en intervalos de 10 minutos

Datos horarios

Fecha y hora oficial Temperatura (ºC) Velocidad del viento (km/h) Dirección del viento Racha (km/h) Dirección de racha Precipitación (mm) Presión (hPa) Tendencia (hPa) Humedad (%)
2020-07-05 23:00:00 28.7 -- -- -- -- 0 940.9 0.7 30
2020-07-05 22:00:00 29.9 -- -- -- -- 0 940.5 -0.1 29
2020-07-05 21:00:00 31.4 -- -- -- -- 0 940.4 -0.7 28
2020-07-05 20:00:00 33 -- -- -- -- 0 940.2 -1.7 27
2020-07-05 19:00:00 33.8 -- -- -- -- 0 940.6 -1.9 26
2020-07-05 18:00:00 34.6 -- -- -- -- 0 941.1 -1.8 26
2020-07-05 17:00:00 35 -- -- -- -- 0 941.9 -1.8 26
2020-07-05 16:00:00 35.2 -- -- -- -- 0 942.5 -1.5 27
2020-07-05 15:00:00 34.4 -- -- -- -- 0 942.9 -1.7 28
2020-07-05 14:00:00 33.8 -- -- -- -- 0 943.7 -1.2 31
2020-07-05 13:00:00 31.5 -- -- -- -- 0 944 -0.7 37
2020-07-05 12:00:00 28.9 -- -- -- -- 0 944.6 0.2 40
2020-07-05 11:00:00 26.4 -- -- -- -- 0 944.9 0.7 38
2020-07-05 10:00:00 24.4 -- -- -- -- 0 944.7 0.6 38
2020-07-05 09:00:00 21.9 -- -- -- -- 0 944.4 0.3 39
2020-07-05 08:00:00 20.4 -- -- -- -- 0 944.2 0.1 41
2020-07-05 07:00:00 20.3 -- -- -- -- 0 944.1 -- 41
2020-07-05 06:00:00 20.9 -- -- -- -- 0 944.1 -- 38
2020-07-05 05:00:00 21.5 -- -- -- -- 0 944.1 -- 37
2020-07-05 04:00:00 22 -- -- -- -- 0 944.1 -- 35
2020-07-05 03:00:00 22.8 -- -- -- -- 0 944.1 -- 32
2020-07-05 02:00:00 24 -- -- -- -- 0 943.4 -- 29
2020-07-05 01:00:00 25.7 -- -- -- -- 0 944 -- 26
2020-07-05 00:00:00 26.8 -- -- -- -- 0 944 -- 26
2020-07-04 23:00:00 28.2 -- -- -- -- 0 943.5 -- 25
2020-07-04 22:00:00 28.4 -- -- -- -- 0 942.7 -- 27
2020-07-04 21:00:00 30.8 -- -- -- -- 0 942.5 -- 24
2020-07-04 20:00:00 31.6 -- -- -- -- 0 942.4 -- 24
2020-07-04 19:00:00 32.1 -- -- -- -- 0 942.5 -- 24
2020-07-04 18:00:00 32.2 -- -- -- -- 0 943.1 -- 25
2020-07-04 17:00:00 32.6 -- -- -- -- 0 943.4 -- 25
2020-07-04 16:00:00 33 -- -- -- -- 0 944 -- 25
2020-07-04 15:00:00 32.5 -- -- -- -- 0 944.4 -- 26
2020-07-04 14:00:00 31.6 -- -- -- -- 0 945 -- 28
2020-07-04 13:00:00 30 -- -- -- -- 0 945.5 -- 31
2020-07-04 12:00:00 28 -- -- -- -- 0 945.5 -- 34
2020-07-04 11:00:00 25.8 -- -- -- -- 0 944.4 -- 37
2020-07-04 10:00:00 23.3 -- -- -- -- 0 945.2 -- 40
2020-07-04 09:00:00 20.9 -- -- -- -- 0 944.9 -- 43
2020-07-04 08:00:00 18.9 -- -- -- -- 0 944.4 -- 44
2020-07-04 07:00:00 18.6 -- -- -- -- 0 944.3 -- 41
2020-07-04 06:00:00 19.4 -- -- -- -- 0 943.7 -- 37
2020-07-04 05:00:00 20.2 -- -- -- -- 0 943.5 -- 35
2020-07-04 04:00:00 21 -- -- -- -- 0 943.3 -- 34
2020-07-04 03:00:00 22 -- -- -- -- 0 943.4 -- 34
2020-07-04 02:00:00 23.3 -- -- -- -- 0 942.8 -- 33
2020-07-04 01:00:00 24.2 -- -- -- -- 0 942.9 -- 32
2020-07-04 00:00:00 24.8 -- -- -- -- 0 942.7 -- 31
2020-07-03 23:00:00 26.9 -- -- -- -- 0 942.1 -- 29
2020-07-03 22:00:00 27.1 -- -- -- -- 0 941.4 -- 29
2020-07-03 21:00:00 28.4 -- -- -- -- 0 941.1 -- 30
2020-07-03 20:00:00 29.6 -- -- -- -- 0 940.8 -- 30
2020-07-03 19:00:00 29.7 -- -- -- -- 0 940.7 -- 29
2020-07-03 18:00:00 29.6 -- -- -- -- 0 941.1 -- 28
2020-07-03 17:00:00 30.2 -- -- -- -- 0 941.5 -- 28
2020-07-03 16:00:00 29.6 -- -- -- -- 0 941.9 -- 28
2020-07-03 15:00:00 28.4 -- -- -- -- 0 942.2 -- 31
2020-07-03 14:00:00 28.9 -- -- -- -- 0 942.5 -- 36
2020-07-03 13:00:00 27.1 -- -- -- -- 0 942.7 -- 38
2020-07-03 12:00:00 25.1 -- -- -- -- 0 942.7 -- 43
2020-07-03 11:00:00 22.6 -- -- -- -- 0 942.4 -- 50
2020-07-03 10:00:00 20.1 -- -- -- -- 0 942.2 -- 55
2020-07-03 09:00:00 18 -- -- -- -- 0 942.1 -- 59
2020-07-03 08:00:00 16.8 -- -- -- -- 0 941.2 -- 60
2020-07-03 07:00:00 16.8 -- -- -- -- 0 941 -- 60
2020-07-03 06:00:00 17.2 -- -- -- -- 0 940.6 -- 59
2020-07-03 05:00:00 18 -- -- -- -- 0 940.5 -- 59
2020-07-03 04:00:00 19.2 -- -- -- -- 0 940.4 -- 57
2020-07-03 03:00:00 20.8 -- -- -- -- 0 939.9 -- 53
2020-07-03 02:00:00 22.5 -- -- -- -- 0 940 -- 37
2020-07-03 01:00:00 23.3 -- -- -- -- 0 939.8 -- 35
2020-07-03 00:00:00 24.6 -- -- -- -- 0 939.6 -- 33
2020-07-02 23:00:00 25.7 -- -- -- -- 0 938.8 -- 33
2020-07-02 22:00:00 26.8 -- -- -- -- 0 938.2 -- 34
2020-07-02 21:00:00 27.8 -- -- -- -- 0 937.9 -- 34
2020-07-02 20:00:00 29.4 -- -- -- -- 0 937.5 -- 31
2020-07-02 19:00:00 30.6 -- -- -- -- 0 937.3 -- 28
2020-07-02 18:00:00 31.2 -- -- -- -- 0 937.4 -- 28
2020-07-02 17:00:00 31.5 -- -- -- -- 0 937.6 -- 28
2020-07-02 16:00:00 32.8 -- -- -- -- 0 938.1 -- 26
2020-07-02 15:00:00 32.2 -- -- -- -- 0 938.5 -- 27
2020-07-02 14:00:00 31.3 -- -- -- -- 0 938.9 -- 29
2020-07-02 13:00:00 30.5 -- -- -- -- 0 938.9 -- 32
2020-07-02 12:00:00 28.9 -- -- -- -- 0 938.9 -- 38
2020-07-02 11:00:00 27.2 -- -- -- -- 0 938.7 -- 42
2020-07-02 10:00:00 25.4 -- -- -- -- 0 938.5 -- 44
2020-07-02 09:00:00 22.6 -- -- -- -- 0 938.1 -- 50
2020-07-02 08:00:00 21 -- -- -- -- 0 937.6 -- 55
2020-07-02 07:00:00 21 -- -- -- -- 0 937.3 -- 50
2020-07-02 06:00:00 21.3 -- -- -- -- 0 937.2 -- 48
2020-07-02 05:00:00 22.5 -- -- -- -- 0 936.9 -- 44
2020-07-02 04:00:00 23.3 -- -- -- -- 0 937.1 -- 41
2020-07-02 03:00:00 24.3 -- -- -- -- 0 937.3 -- 38
2020-07-02 02:00:00 25.1 -- -- -- -- 0 937.4 -- 35
2020-07-02 01:00:00 26.2 -- -- -- -- 0 937.3 -- 33
2020-07-02 00:00:00 27.2 -- -- -- -- 0 937.3 -- 32
2020-07-01 23:00:00 28.5 -- -- -- -- 0 937.1 -- 31
2020-07-01 22:00:00 29.7 -- -- -- -- 0 936.4 -- 30
2020-07-01 21:00:00 30.9 -- -- -- -- 0 935.9 -- 30
2020-07-01 20:00:00 31.1 -- -- -- -- 0 935.5 -- 30
2020-07-01 19:00:00 31.6 -- -- -- -- 0 935.7 -- 30
2020-07-01 18:00:00 33.3 -- -- -- -- 0 935.9 -- 30
2020-07-01 17:00:00 34 -- -- -- -- 0 936 -- 27
2020-07-01 16:00:00 34.6 -- -- -- -- 0 936.5 -- 27
2020-07-01 15:00:00 33.9 -- -- -- -- 0 936.8 -- 28
2020-07-01 14:00:00 32.9 -- -- -- -- 0 936.9 -- 29
2020-07-01 13:00:00 31.8 -- -- -- -- 0 937.3 -- 31
2020-07-01 12:00:00 31 -- -- -- -- 0 937.2 -- 31
2020-07-01 11:00:00 29 -- -- -- -- 0 937.1 -- 34
2020-07-01 10:00:00 26 -- -- -- -- 0 937 -- 43
2020-07-01 09:00:00 23 -- -- -- -- 0 936.5 -- 48
2020-07-01 08:00:00 21.3 -- -- -- -- 0 935.9 -- 54
2020-07-01 07:00:00 21.8 -- -- -- -- 0 935.6 -- 47
2020-07-01 06:00:00 23 -- -- -- -- 0 935.3 -- 47
2020-07-01 05:00:00 23.7 -- -- -- -- 0 935.1 -- 44
2020-07-01 04:00:00 24.1 -- -- -- -- 0 935.2 -- 44
2020-07-01 03:00:00 25.4 -- -- -- -- 0 935 -- 40
2020-07-01 02:00:00 25.8 -- -- -- -- 0 934.9 -- 39
2020-07-01 01:00:00 27.1 -- -- -- -- 0 935 -- 37
2020-07-01 00:00:00 28.3 -- -- -- -- 0 934.8 -- 35
2020-06-30 23:00:00 29.7 -- -- -- -- 0 934.7 -- 33
2020-06-30 22:00:00 30.3 -- -- -- -- 0 934 -- 32
2020-06-30 21:00:00 31 -- -- -- -- 0 933.4 -- 30
2020-06-30 20:00:00 33.4 -- -- -- -- 0 933.2 -- 26
2020-06-30 19:00:00 35 -- -- -- -- 0 933.3 -- 24
2020-06-30 18:00:00 35.9 -- -- -- -- 0 934 -- 23
2020-06-30 17:00:00 36.3 -- -- -- -- 0 934.6 -- 22
2020-06-30 16:00:00 36.6 -- -- -- -- 0 935.3 -- 23
2020-06-30 15:00:00 36.7 -- -- -- -- 0 936 -- 26
2020-06-30 14:00:00 35.2 -- -- -- -- 0 936.5 -- 30
2020-06-30 13:00:00 33.8 -- -- -- -- 0 937 -- 32
2020-06-30 12:00:00 31.3 -- -- -- -- 0 937 -- 37
2020-06-30 11:00:00 27.6 -- -- -- -- 0 937.3 -- 43
2020-06-30 10:00:00 25.6 -- -- -- -- 0 937.6 -- 46
2020-06-30 09:00:00 23.7 -- -- -- -- 0 937.5 -- 54
2020-06-30 08:00:00 22.5 -- -- -- -- 0 937.4 -- 57
2020-06-30 07:00:00 22.6 -- -- -- -- 0 937.1 -- 55
2020-06-30 06:00:00 23 -- -- -- -- 0 936.7 -- 54
2020-06-30 05:00:00 23.7 -- -- -- -- 0 936.4 -- 51
2020-06-30 04:00:00 24.4 -- -- -- -- 0 936.4 -- 50
2020-06-30 03:00:00 25.3 -- -- -- -- 0 936.8 -- 47
2020-06-30 02:00:00 26.9 -- -- -- -- 0 936.9 -- 37
2020-06-30 01:00:00 26.4 -- -- -- -- 0 936.9 -- 35
2020-06-30 00:00:00 27.1 -- -- -- -- 0 937.1 -- 30
2020-06-29 23:00:00 28.5 -- -- -- -- 0 937 -- 27
2020-06-29 22:00:00 29.5 -- -- -- -- 0 936.6 -- 26
2020-06-29 21:00:00 30.2 -- -- -- -- 0 936.6 -- 25
2020-06-29 20:00:00 32.1 -- -- -- -- 0 936.6 -- 23
2020-06-29 19:00:00 34.2 -- -- -- -- 0 937.1 -- 20
2020-06-29 18:00:00 35.1 -- -- -- -- 0 937.5 -- 21
2020-06-29 17:00:00 35.5 -- -- -- -- 0 938 -- 23
2020-06-29 16:00:00 34.8 -- -- -- -- 0 938.7 -- 25
2020-06-29 15:00:00 34.9 -- -- -- -- 0 939.2 -- 27
2020-06-29 14:00:00 33.6 -- -- -- -- 0 939.8 -- 31
2020-06-29 13:00:00 32 -- -- -- -- 0 940.3 -- 35
2020-06-29 12:00:00 30.8 -- -- -- -- 0 940.8 -- 38
2020-06-29 11:00:00 28.4 -- -- -- -- 0 940.8 -- 42
2020-06-29 10:00:00 26 -- -- -- -- 0 940.7 -- 46
2020-06-29 09:00:00 23.8 -- -- -- -- 0 940.5 -- 50
2020-06-29 08:00:00 22.8 -- -- -- -- 0 940.5 -- 51
2020-06-29 07:00:00 22.2 -- -- -- -- 0 939.7 -- 50
2020-06-29 06:00:00 21.8 -- -- -- -- 0 939.5 -- 51
2020-06-29 05:00:00 22.7 -- -- -- -- 0 939.5 -- 47
2020-06-29 04:00:00 22.3 -- -- -- -- 0 939.5 -- 48
2020-06-29 03:00:00 23.7 -- -- -- -- 0 939.6 -- 43
2020-06-29 02:00:00 25 -- -- -- -- 0 939.9 -- 41
2020-06-29 01:00:00 26.5 -- -- -- -- 0 939.9 -- 38
2020-06-29 00:00:00 26.6 -- -- -- -- 0 939.8 -- 37
2020-06-28 23:00:00 27.2 -- -- -- -- 0 939.4 -- 34
2020-06-28 22:00:00 28.4 -- -- -- -- 0 939.1 -- 31
2020-06-28 21:00:00 30.5 -- -- -- -- 0 939 -- 28
2020-06-28 20:00:00 31.6 -- -- -- -- 0 939 -- 28
2020-06-28 19:00:00 32 -- -- -- -- 0 939.1 -- 28
2020-06-28 18:00:00 32.5 -- -- -- -- 0 939.4 -- 28
2020-06-28 17:00:00 33.1 -- -- -- -- 0 940.1 -- 29
2020-06-28 16:00:00 33.6 -- -- -- -- 0 940.4 -1.3 30
2020-06-28 15:00:00 33.2 -- -- -- -- 0 940.8 -- 31
2020-06-28 14:00:00 31.6 -- -- -- -- 0 941.2 -- 34
2020-06-28 13:00:00 30.4 -- -- -- -- 0 941.7 -- 38
2020-06-28 12:00:00 29 -- -- -- -- 0 941.9 -- 41
2020-06-28 11:00:00 26.2 -- -- -- -- 0 941.9 -- 44
2020-06-28 10:00:00 24.2 -- -- -- -- 0 942.1 -- 48
2020-06-28 09:00:00 22.3 -- -- -- -- 0 941.1 -- 52
2020-06-28 08:00:00 21.2 -- -- -- -- 0 940.9 -- 54
2020-06-28 07:00:00 20 -- -- -- -- 0 940.5 -- 55
2020-06-28 06:00:00 20.8 -- -- -- -- 0 939.9 -- 52
2020-06-28 05:00:00 21.8 -- -- -- -- 0 940.4 -- 49
2020-06-28 04:00:00 22.3 -- -- -- -- 0 940.3 -- 47
2020-06-28 03:00:00 22.4 -- -- -- -- 0 940.4 -- 49
2020-06-28 02:00:00 22.9 -- -- -- -- 0 940.3 -- 47
2020-06-28 01:00:00 23.8 -- -- -- -- 0 940.3 -- 43
2020-06-28 00:00:00 25.1 -- -- -- -- 0 939.9 -- 39
2020-06-27 23:00:00 26.1 -- -- -- -- 0 939.4 -- 38
2020-06-27 22:00:00 26.9 -- -- -- -- 0 938.8 -- 37
2020-06-27 21:00:00 27.8 -- -- -- -- 0 938.4 -- 38
2020-06-27 20:00:00 28.8 -- -- -- -- 0 938.4 -- 36
2020-06-27 19:00:00 30.8 -- -- -- -- 0 938.3 -- 32
2020-06-27 18:00:00 30.9 -- -- -- -- 0 938.6 -- 32
2020-06-27 17:00:00 30.4 -- -- -- -- 0 938.8 -- 31
2020-06-27 16:00:00 31.3 -- -- -- -- 0 939.3 -- 31
2020-06-27 15:00:00 31.3 -- -- -- -- 0 939.6 -- 33
2020-06-27 14:00:00 29.7 -- -- -- -- 0 939.8 -- 35
2020-06-27 13:00:00 29.3 -- -- -- -- 0 940.2 -- 36
2020-06-27 12:00:00 26.4 -- -- -- -- 0 940.2 -- 38
2020-06-27 11:00:00 24.7 -- -- -- -- 0 940.3 -- 41
2020-06-27 10:00:00 23.1 -- -- -- -- 0 940.2 -- 43
2020-06-27 09:00:00 20 -- -- -- -- 0 939.7 -- 46
2020-06-27 08:00:00 18.8 -- -- -- -- 0 939.4 -- 51
2020-06-27 07:00:00 18.8 -- -- -- -- 0 939 -- 50
2020-06-27 06:00:00 19.4 -- -- -- -- 0 937.8 -- 50
2020-06-27 05:00:00 19.8 -- -- -- -- 0 938.2 -- 49
2020-06-27 04:00:00 20.4 -- -- -- -- 0 938.4 -- 45
2020-06-27 03:00:00 20.8 -- -- -- -- 0 938.1 -- 42
2020-06-27 02:00:00 21.1 -- -- -- -- 0 938 -- 40
2020-06-27 01:00:00 21.7 -- -- -- -- 0 938 -- 37
2020-06-27 00:00:00 22.8 -- -- -- -- 0 937.9 -- 34
2020-06-26 23:00:00 23.6 -- -- -- -- 0 937.6 -- 32
2020-06-26 22:00:00 24.3 -- -- -- -- 0 936.7 -- 34
2020-06-26 21:00:00 24.9 -- -- -- -- 0 936.4 -- 34
2020-06-26 20:00:00 26.9 -- -- -- -- 0 936.2 -- 30
2020-06-26 19:00:00 28.5 -- -- -- -- 0 936.2 -- 26
2020-06-26 18:00:00 29.8 -- -- -- -- 0 936.4 -- 28
2020-06-26 17:00:00 30.5 -- -- -- -- 0 936.8 -- 28
2020-06-26 16:00:00 30.7 -- -- -- -- 0 937.4 -- 31
2020-06-26 15:00:00 30.1 -- -- -- -- 0 937.7 -- 31
2020-06-26 14:00:00 29 -- -- -- -- 0 937.8 -- 33
2020-06-26 13:00:00 29 -- -- -- -- 0 938 -- 35
2020-06-26 12:00:00 28.3 -- -- -- -- 0 938 -- 38
2020-06-26 11:00:00 25.9 -- -- -- -- 0 938 -- 43
2020-06-26 10:00:00 24.3 -- -- -- -- 0 937.9 -- 46
2020-06-26 09:00:00 22.2 -- -- -- -- 0 937.8 -- 47
2020-06-26 08:00:00 21 -- -- -- -- 0 937.5 -- 49
2020-06-26 07:00:00 20.9 -- -- -- -- 0 937.4 -- 48
2020-06-26 06:00:00 21.5 -- -- -- -- 0 937.2 -- 50
2020-06-26 05:00:00 22.3 -- -- -- -- 0 937 -- 45
2020-06-26 04:00:00 22.6 -- -- -- -- 0 936.9 -- 51
2020-06-26 03:00:00 23.1 -- -- -- -- 0 937.2 -- 53
2020-06-26 02:00:00 23.1 -- -- -- -- 0 937.1 -- 52
2020-06-26 01:00:00 23.9 -- -- -- -- 0 937.1 -- 47
2020-06-26 00:00:00 26 -- -- -- -- 0 937.3 -- 38
2020-06-25 23:00:00 27 -- -- -- -- 0 936.9 -- 36
2020-06-25 22:00:00 28 -- -- -- -- 0 936.1 -- 35
2020-06-25 21:00:00 27.8 -- -- -- -- 0 935.8 -- 38
2020-06-25 20:00:00 30.9 -- -- -- -- 0 935.4 -- 32
2020-06-25 19:00:00 32.7 -- -- -- -- 0 935.4 -- 30
2020-06-25 18:00:00 32.6 -- -- -- -- 0 936 -- 29
2020-06-25 17:00:00 33.9 -- -- -- -- 0 936.6 -- 28
2020-06-25 16:00:00 34.2 -- -- -- -- 0 936.9 -- 29
2020-06-25 15:00:00 33.5 -- -- -- -- 0 937.5 -- 31
2020-06-25 14:00:00 32.4 -- -- -- -- 0 938.4 -- 33
2020-06-25 13:00:00 30.1 -- -- -- -- 0 938.7 -- 36
2020-06-25 12:00:00 28.5 -- -- -- -- 0 939.1 -- 38
2020-06-25 11:00:00 26.6 -- -- -- -- 0 938.9 -- 42
2020-06-25 10:00:00 24.6 -- -- -- -- 0 939.1 -- 45
2020-06-25 09:00:00 22.6 -- -- -- -- 0 938.9 -- 48
2020-06-25 08:00:00 21.6 -- -- -- -- 0 938.9 -- 50
2020-06-25 07:00:00 21.4 -- -- -- -- 0 939 -- 49
2020-06-25 06:00:00 21.9 -- -- -- -- 0 938.5 -- 46
2020-06-25 05:00:00 22.6 -- -- -- -- 0 938.6 -- 46
2020-06-25 04:00:00 22.8 -- -- -- -- 0 938.7 -- 44
2020-06-25 03:00:00 24 -- -- -- -- 0 938.9 -- 42
2020-06-25 02:00:00 24.3 -- -- -- -- 0 939.2 -- 41
2020-06-25 01:00:00 25.9 -- -- -- -- 0 939.3 -- 38
2020-06-25 00:00:00 26.7 -- -- -- -- 0 939.6 -- 36
2020-06-24 23:00:00 27.8 -- -- -- -- 0 939.4 -- 35
2020-06-24 22:00:00 28.3 -- -- -- -- 0 938.6 -- 33
2020-06-24 21:00:00 29.1 -- -- -- -- 0 938.7 -- 31
2020-06-24 20:00:00 30.6 -- -- -- -- 0 938.6 -- 30
2020-06-24 19:00:00 30.8 -- -- -- -- 0 938.8 -- 30
2020-06-24 18:00:00 30.7 -- -- -- -- 0 939.4 -- 32
2020-06-24 17:00:00 30.6 -- -- -- -- 0 939.8 -- 34
2020-06-24 16:00:00 30 -- -- -- -- 0 940.1 -- 37
2020-06-24 15:00:00 27.4 -- -- -- -- 0 941.2 -- 40
2020-06-24 14:00:00 25.6 -- -- -- -- 0 940.8 -- 43
2020-06-24 13:00:00 25.1 -- -- -- -- 0 939.9 -- 45
2020-06-24 12:00:00 25.6 -- -- -- -- 0 940.9 -- 42
2020-06-24 11:00:00 25.4 -- -- -- -- 0.1 939.9 -- 44
2020-06-24 10:00:00 26.5 -- -- -- -- 0 939.9 -- 43
2020-06-24 09:00:00 23.6 -- -- -- -- 0 939.8 -- 49
2020-06-24 08:00:00 23.4 -- -- -- -- 0 939.2 -- 47
2020-06-24 07:00:00 23.3 -- -- -- -- 0 939 -- 44
2020-06-24 06:00:00 24.3 -- -- -- -- 0 938.7 -- 42
2020-06-24 05:00:00 25 -- -- -- -- 0 938.7 -- 39
2020-06-24 04:00:00 25.5 -- -- -- -- 0 938.1 -- 38
2020-06-24 03:00:00 26.2 -- -- -- -- 0 939.3 -- 35
2020-06-24 02:00:00 27.4 -- -- -- -- 0 939.2 -- 32
2020-06-24 01:00:00 28.1 -- -- -- -- 0 939.2 -- 31
2020-06-24 00:00:00 28.4 -- -- -- -- 0 939 -- 30
2020-06-23 23:00:00 28.4 -- -- -- -- 0 938.3 -- 28
2020-06-23 22:00:00 29.5 -- -- -- -- 0 937.6 -- 27
2020-06-23 21:00:00 30.8 -- -- -- -- 0 937.1 -- 28
2020-06-23 20:00:00 33.2 -- -- -- -- 0 937.1 -- 23
2020-06-23 19:00:00 34.1 -- -- -- -- 0 937.3 -- 22
2020-06-23 18:00:00 35.4 -- -- -- -- 0 937.8 -- 22
2020-06-23 17:00:00 35.3 -- -- -- -- 0 938.3 -- 22
2020-06-23 16:00:00 35.2 -- -- -- -- 0 938.9 -- 26
2020-06-23 15:00:00 34.4 -- -- -- -- 0 939.6 -- 28
2020-06-23 14:00:00 32.5 -- -- -- -- 0 940.3 -- 31
2020-06-23 13:00:00 30.7 -- -- -- -- 0 940.9 -- 34
2020-06-23 12:00:00 29.3 -- -- -- -- 0 941 -- 37
2020-06-23 11:00:00 27.1 -- -- -- -- 0 941.3 -- 40
2020-06-23 10:00:00 25.1 -- -- -- -- 0 941.5 -- 43
2020-06-23 09:00:00 22.9 -- -- -- -- 0 940.8 -- 47
2020-06-23 08:00:00 21.7 -- -- -- -- 0 940.1 -- 47
2020-06-23 07:00:00 21.9 -- -- -- -- 0 940.6 -- 44
2020-06-23 06:00:00 22.3 -- -- -- -- 0 941.1 -- 42
2020-06-23 05:00:00 22.9 -- -- -- -- 0 940.9 -- 41
2020-06-23 04:00:00 23.9 -- -- -- -- 0 941.2 -- 38
2020-06-23 03:00:00 24.6 -- -- -- -- 0 941.3 -- 35
2020-06-23 02:00:00 25.5 -- -- -- -- 0 941.2 -- 31
2020-06-23 01:00:00 26.8 -- -- -- -- 0 940.8 -- 30
2020-06-23 00:00:00 26.9 -- -- -- -- 0 940.8 -- 29
2020-06-22 23:00:00 27.4 -- -- -- -- 0 940.6 -- 28
2020-06-22 22:00:00 28.2 -- -- -- -- 0 940.3 -- 29
2020-06-22 21:00:00 29.8 -- -- -- -- 0 940.3 -- 28
2020-06-22 20:00:00 31.7 -- -- -- -- 0 940.4 -- 23
2020-06-22 19:00:00 32.5 -- -- -- -- 0 940.8 -- 23
2020-06-22 18:00:00 32.8 -- -- -- -- 0 941.4 -- 24
2020-06-22 17:00:00 33.6 -- -- -- -- 0 942.2 -- 23
2020-06-22 16:00:00 33.1 -- -- -- -- 0 943.3 -- 24
2020-06-22 15:00:00 33.3 -- -- -- -- 0 943.9 -- 27
2020-06-22 14:00:00 32.1 -- -- -- -- 0 944.7 -- 29
2020-06-22 13:00:00 30.6 -- -- -- -- 0 945 -- 33
2020-06-22 12:00:00 29.1 -- -- -- -- 0 945.4 -- 36
2020-06-22 11:00:00 25.9 -- -- -- -- 0 945.4 -- 42
2020-06-22 10:00:00 23 -- -- -- -- 0 945.6 -- 45
2020-06-22 09:00:00 20.8 -- -- -- -- 0 945.7 -- 48
2020-06-22 08:00:00 19.4 -- -- -- -- 0 945.5 -- 50
2020-06-22 07:00:00 19.2 -- -- -- -- 0 945.3 -- 49
2020-06-22 06:00:00 19.8 -- -- -- -- 0 945.3 -- 49
2020-06-22 05:00:00 20.3 -- -- -- -- 0 945.4 -- 47
2020-06-22 04:00:00 21.1 -- -- -- -- 0 945.3 -- 45
2020-06-22 03:00:00 22 -- -- -- -- 0 945.4 -- 43
2020-06-22 02:00:00 23.3 -- -- -- -- 0 945.3 -- 40
2020-06-22 01:00:00 25.1 -- -- -- -- 0 945.6 -- 31
2020-06-22 00:00:00 26.7 -- -- -- -- 0 945 -- 27
2020-06-21 23:00:00 27.4 -- -- -- -- 0 944.6 -- 27
2020-06-21 22:00:00 28.4 -- -- -- -- 0 944 -- 27
2020-06-21 21:00:00 29.6 -- -- -- -- 0 943.6 -- 30
2020-06-21 20:00:00 30.8 -- -- -- -- 0 943.3 -- 26
2020-06-21 19:00:00 31.8 -- -- -- -- 0 943.6 -- 25
2020-06-21 18:00:00 32.6 -- -- -- -- 0 943.9 -- 23
2020-06-21 17:00:00 32.5 -- -- -- -- 0 944.4 -- 23
2020-06-21 16:00:00 32.9 -- -- -- -- 0 945.1 -- 23
2020-06-21 15:00:00 32.9 -- -- -- -- 0 945.6 -- 25
2020-06-21 14:00:00 30.5 -- -- -- -- 0 946 -- 27
2020-06-21 13:00:00 29.9 -- -- -- -- 0 946.2 -- 29
2020-06-21 12:00:00 28.5 -- -- -- -- 0 946.3 -- 31
2020-06-21 11:00:00 26 -- -- -- -- 0 945.2 -- 35
2020-06-21 10:00:00 23.8 -- -- -- -- 0 946.2 -- 39
2020-06-21 09:00:00 20.7 -- -- -- -- 0 945.7 -- 46
2020-06-21 08:00:00 18.9 -- -- -- -- 0 945 -- 50
2020-06-21 07:00:00 18.7 -- -- -- -- 0 944.6 -- 47
2020-06-21 06:00:00 19.2 -- -- -- -- 0 944.3 -- 45
2020-06-21 05:00:00 19.8 -- -- -- -- 0 944.2 -- 42
2020-06-21 04:00:00 20.2 -- -- -- -- 0 944.3 -- 42
2020-06-21 03:00:00 21.1 -- -- -- -- 0 944.3 -- 41
2020-06-21 02:00:00 21.4 -- -- -- -- 0 944.4 -- 40
2020-06-21 01:00:00 22.4 -- -- -- -- 0 944.2 -- 38
2020-06-21 00:00:00 24.3 -- -- -- -- 0 944.4 -- 34
2020-06-20 23:00:00 25.2 -- -- -- -- 0 943.8 -- 31
2020-06-20 22:00:00 26.6 -- -- -- -- 0 943.2 -- 30
2020-06-20 21:00:00 27.3 -- -- -- -- 0 942.8 -- 30
2020-06-20 20:00:00 29.6 -- -- -- -- 0 942.7 -- 23
2020-06-20 19:00:00 30.5 -- -- -- -- 0 942.6 -- 22
2020-06-20 18:00:00 30.8 -- -- -- -- 0 943 -- 20
2020-06-20 17:00:00 31.6 -- -- -- -- 0 943.4 -- 21
2020-06-20 16:00:00 31.5 -- -- -- -- 0 944 -- 22
2020-06-20 15:00:00 31.5 -- -- -- -- 0 943.9 -- 23
2020-06-20 14:00:00 30.2 -- -- -- -- 0 944.4 -- 26
2020-06-20 13:00:00 29.4 -- -- -- -- 0 944.7 -- 29
2020-06-20 12:00:00 27.5 -- -- -- -- 0 944.7 -- 33
2020-06-20 11:00:00 24.8 -- -- -- -- 0 944.3 -- 35
2020-06-20 10:00:00 21.9 -- -- -- -- 0 944.1 -- 39
2020-06-20 09:00:00 19.1 -- -- -- -- 0 943.8 -- 43
2020-06-20 08:00:00 17.6 -- -- -- -- 0 943.2 -- 49
2020-06-20 07:00:00 17 -- -- -- -- 0 942.8 -- 46
2020-06-20 06:00:00 17.7 -- -- -- -- 0 942.6 -- 43
2020-06-20 05:00:00 18.3 -- -- -- -- 0 942.4 -- 41
2020-06-20 04:00:00 18.7 -- -- -- -- 0 942.3 -- 39
2020-06-20 03:00:00 19 -- -- -- -- 0 942.4 -- 38
2020-06-20 02:00:00 20.4 -- -- -- -- 0 942.5 -- 36
2020-06-20 01:00:00 21.7 -- -- -- -- 0 941.2 -- 35
2020-06-20 00:00:00 22.8 -- -- -- -- 0 942.1 -- 37
2020-06-19 23:00:00 24.3 -- -- -- -- 0 941.6 -- 33
2020-06-19 22:00:00 25.3 -- -- -- -- 0 940.8 -- 31
2020-06-19 21:00:00 26 -- -- -- -- 0 940.2 -- 31
2020-06-19 20:00:00 28.2 -- -- -- -- 0 939.9 -- 25
2020-06-19 19:00:00 28.7 -- -- -- -- 0 939.7 -- 24
2020-06-19 18:00:00 29.1 -- -- -- -- 0 939.7 -- 24
2020-06-19 17:00:00 29.2 -- -- -- -- 0 940.3 -- 23
2020-06-19 16:00:00 29.4 -- -- -- -- 0 940.5 -- 27
2020-06-19 15:00:00 29 -- -- -- -- 0 940.6 -- 31
2020-06-19 14:00:00 26.9 -- -- -- -- 0 940.8 -- 36
2020-06-19 13:00:00 26.5 -- -- -- -- 0 940.9 -- 42
2020-06-19 12:00:00 23.6 -- -- -- -- 0 941 -- 50
2020-06-19 11:00:00 21.4 -- -- -- -- 0 940.4 -- 59
2020-06-19 10:00:00 19.4 -- -- -- -- 0 940.5 -- 63
2020-06-19 09:00:00 17.8 -- -- -- -- 0 940.2 -- 64
2020-06-19 08:00:00 16.7 -- -- -- -- 0 939.9 -- 61
2020-06-19 07:00:00 16.6 -- -- -- -- 0 939.2 -- 59
2020-06-19 06:00:00 17.1 -- -- -- -- 0 938.7 -- 58
2020-06-19 05:00:00 17.7 -- -- -- -- 0 938.1 -- 56
2020-06-19 04:00:00 18.2 -- -- -- -- 0 938 -- 53
2020-06-19 03:00:00 18.8 -- -- -- -- 0 937 -- 52
2020-06-19 02:00:00 20.1 -- -- -- -- 0 938.3 -- 47
2020-06-19 01:00:00 20.7 -- -- -- -- 0 937.9 -- 40
2020-06-19 00:00:00 21.3 -- -- -- -- 0 937.6 -- 39
2020-06-18 23:00:00 21.9 -- -- -- -- 0 937.3 -- 37
2020-06-18 22:00:00 23 -- -- -- -- 0 936.6 -- 37
2020-06-18 21:00:00 24.7 -- -- -- -- 0 935.9 -- 32
2020-06-18 20:00:00 26.7 -- -- -- -- 0 935.4 -- 26
2020-06-18 19:00:00 27.5 -- -- -- -- 0 935 -- 26
2020-06-18 18:00:00 27.5 -- -- -- -- 0 935.3 -- 26
2020-06-18 17:00:00 27.8 -- -- -- -- 0 935.7 -- 27
2020-06-18 16:00:00 28.2 -- -- -- -- 0 936.3 -- 28
2020-06-18 15:00:00 27.4 -- -- -- -- 0 936.5 -- 30
2020-06-18 14:00:00 26.8 -- -- -- -- 0 936.7 -- 31
2020-06-18 13:00:00 25.5 -- -- -- -- 0 937 -- 36
2020-06-18 12:00:00 24.1 -- -- -- -- 0 936.9 -- 38
2020-06-18 11:00:00 21.6 -- -- -- -- 0 936.9 -- 45
2020-06-18 10:00:00 19.4 -- -- -- -- 0 936.5 -- 50
2020-06-18 09:00:00 16.8 -- -- -- -- 0 936.4 -- 54
2020-06-18 08:00:00 16 -- -- -- -- 0 935.9 -- 55
2020-06-18 07:00:00 16 -- -- -- -- 0 935.7 -- 54
2020-06-18 06:00:00 16.3 -- -- -- -- 0 935.4 -- 52
2020-06-18 05:00:00 17 -- -- -- -- 0 934.8 -- 46
2020-06-18 04:00:00 18 -- -- -- -- 0 935.5 -- 41
2020-06-18 03:00:00 18.6 -- -- -- -- 0 936.1 -- 41
2020-06-18 02:00:00 19.3 -- -- -- -- 0 936.9 -- 39
2020-06-18 01:00:00 20.3 -- -- -- -- 0 936.8 -- 37
2020-06-18 00:00:00 21.2 -- -- -- -- 0 937 -- 34
2020-06-17 23:00:00 21.6 -- -- -- -- 0 936.9 -- 34
2020-06-17 22:00:00 22.3 -- -- -- -- -- 936.2 -- 34
2020-06-17 21:00:00 22.7 -- -- -- -- -- 936 -- --
2020-06-17 20:00:00 23.7 -- -- -- -- -- 935.9 -- --
2020-06-17 19:00:00 24.6 -- -- -- -- -- 936.2 -- --
2020-06-17 18:00:00 25.2 -- -- -- -- -- 936.8 -- --
2020-06-17 17:00:00 25.8 -- -- -- -- -- 937.3 -- --
2020-06-17 16:00:00 24.9 -- -- -- -- -- 937.7 -- --
2020-06-17 15:00:00 24.3 -- -- -- -- -- 938.1 -- --
2020-06-17 14:00:00 22.6 -- -- -- -- -- 938.7 -- --
2020-06-17 13:00:00 23.7 -- -- -- -- -- 939.1 -- --
2020-06-17 12:00:00 20.5 -- -- -- -- -- 939 -- --
2020-06-17 11:00:00 20.3 -- -- -- -- -- 939.1 -- --
2020-06-17 10:00:00 18.5 -- -- -- -- -- 939 -- --
2020-06-17 09:00:00 16.8 -- -- -- -- -- 938.9 -- --
2020-06-17 08:00:00 13.8 -- -- -- -- -- 938.9 -- --
2020-06-17 07:00:00 14.1 -- -- -- -- -- 938.7 -- --
2020-06-17 06:00:00 14 -- -- -- -- -- 938.5 -- --
2020-06-17 05:00:00 15 -- -- -- -- -- 938.5 -- --
2020-06-17 04:00:00 15.4 -- -- -- -- -- 938.6 -- --
2020-06-17 03:00:00 16.3 -- -- -- -- -- 939.4 -- --
2020-06-17 02:00:00 17.5 -- -- -- -- -- 939.8 -- --
2020-06-17 01:00:00 18.3 -- -- -- -- -- 939.9 -- --
2020-06-17 00:00:00 18.8 -- -- -- -- -- 940.1 -- --
2020-06-16 23:00:00 19.5 -- -- -- -- -- 940.1 -- --
2020-06-16 22:00:00 19.6 -- -- -- -- -- 939.6 -- --
2020-06-16 21:00:00 21.3 -- -- -- -- -- 938.8 -- --
2020-06-16 20:00:00 22.3 -- -- -- -- -- 939.6 -- --
2020-06-16 19:00:00 23.1 -- -- -- -- -- 939.2 -- --
2020-06-16 18:00:00 23.4 -- -- -- -- -- 939.4 -- --
2020-06-16 17:00:00 25 -- -- -- -- -- 939.6 -- --
2020-06-16 16:00:00 23.9 -- -- -- -- -- 940.3 -- --
2020-06-16 15:00:00 24.5 -- -- -- -- -- 940.8 -- --
2020-06-16 14:00:00 24 -- -- -- -- -- 941.1 -- --
2020-06-16 13:00:00 22.9 -- -- -- -- -- 940.4 -- --
2020-06-16 12:00:00 21.5 -- -- -- -- -- 941.4 -- --
2020-06-16 11:00:00 18.9 -- -- -- -- -- 941.5 -- --
2020-06-16 10:00:00 18.2 -- -- -- -- -- 941.9 -- --
2020-06-16 09:00:00 16.6 -- -- -- -- -- 941.7 -- --
2020-06-16 08:00:00 16.5 -- -- -- -- -- 941.6 -- --
2020-06-16 07:00:00 16 -- -- -- -- -- 941.4 -- --
2020-06-16 06:00:00 16 -- -- -- -- -- 941.1 -- --
2020-06-16 05:00:00 16.4 -- -- -- -- -- 940.9 -- --
2020-06-16 04:00:00 16.8 -- -- -- -- -- 941.2 -- --
2020-06-16 03:00:00 17.6 -- -- -- -- -- 941.6 -- --
2020-06-16 02:00:00 18.3 -- -- -- -- -- 941.9 -- --
2020-06-16 01:00:00 18.9 -- -- -- -- -- 942.1 -- --
2020-06-16 00:00:00 20.2 -- -- -- -- -- 942.2 -- --
2020-06-15 23:00:00 20.9 -- -- -- -- -- 942 -- --
2020-06-15 22:00:00 21.7 -- -- -- -- -- 941.9 -- --
2020-06-15 21:00:00 22.5 -- -- -- -- -- 940.7 -- --
2020-06-15 20:00:00 23.8 -- -- -- -- -- 941.7 -- --
2020-06-15 19:00:00 24.9 -- -- -- -- -- 941.2 -- --
2020-06-15 18:00:00 26.2 -- -- -- -- -- 941.7 -- --
2020-06-15 17:00:00 26.4 -- -- -- -- -- 942 -- --
2020-06-15 16:00:00 26.3 -- -- -- -- -- 942.7 -- --
2020-06-15 15:00:00 25.9 -- -- -- -- -- 943 -- --
2020-06-15 14:00:00 25.5 -- -- -- -- -- 943.9 -- --
2020-06-15 13:00:00 24.7 -- -- -- -- -- 943.5 -- --
2020-06-15 12:00:00 22.8 -- -- -- -- -- 943.8 -- --
2020-06-15 11:00:00 21 -- -- -- -- -- 943.7 -- --
2020-06-15 10:00:00 19.2 -- -- -- -- -- 943.7 -- --
2020-06-15 09:00:00 16.2 -- -- -- -- -- 943.3 -- --
2020-06-15 08:00:00 14.5 -- -- -- -- -- 943.2 -- --
2020-06-15 07:00:00 14.4 -- -- -- -- -- 943 -- --
2020-06-15 06:00:00 14.9 -- -- -- -- -- 942.7 -- --
2020-06-15 05:00:00 15.9 -- -- -- -- -- 942.6 -- --
2020-06-15 04:00:00 16.5 -- -- -- -- -- 942.6 -- --
2020-06-15 03:00:00 18.3 -- -- -- -- -- 942.7 -- --
2020-06-15 02:00:00 18.6 -- -- -- -- -- 942.9 -- --
2020-06-15 01:00:00 19.2 -- -- -- -- -- 942.8 -- --
2020-06-15 00:00:00 19.7 -- -- -- -- -- 942.4 -- --
2020-06-14 23:00:00 20.1 -- -- -- -- -- 942.2 -- --
2020-06-14 22:00:00 21.6 -- -- -- -- -- 941.4 -- --
2020-06-14 21:00:00 22.8 -- -- -- -- -- 940.9 -- --
2020-06-14 20:00:00 24.3 -- -- -- -- -- 941 -- --
2020-06-14 19:00:00 24.2 -- -- -- -- -- 940.5 -- --
2020-06-14 18:00:00 24.4 -- -- -- -- -- 940.9 -- --
2020-06-14 17:00:00 24.7 -- -- -- -- -- 941.2 -- --
2020-06-14 16:00:00 24.6 -- -- -- -- -- 941.5 -- --
2020-06-14 15:00:00 24.7 -- -- -- -- -- 942.2 -- --
2020-06-14 14:00:00 23.9 -- -- -- -- -- 942.1 -- --
2020-06-14 13:00:00 21.8 -- -- -- -- -- 942.6 -- --
2020-06-14 12:00:00 19.5 -- -- -- -- -- 942.6 -- --
2020-06-14 11:00:00 18.7 -- -- -- -- -- 942.4 -- --
2020-06-14 10:00:00 17.4 -- -- -- -- -- 942.1 -- --
2020-06-14 09:00:00 15 -- -- -- -- -- 941.8 -- --
2020-06-14 08:00:00 13.4 -- -- -- -- -- 941 -- --
2020-06-14 07:00:00 13.2 -- -- -- -- -- 940.7 -- --
2020-06-14 06:00:00 13.2 -- -- -- -- -- 940.2 -- --
2020-06-14 05:00:00 13.1 -- -- -- -- -- 940.1 -- --
2020-06-14 04:00:00 13.9 -- -- -- -- -- 940.1 -- --
2020-06-14 03:00:00 14.1 -- -- -- -- -- 940.2 -- --
2020-06-14 02:00:00 15.3 -- -- -- -- -- 940 -- --
2020-06-14 01:00:00 16.1 -- -- -- -- -- 940 -- --
2020-06-14 00:00:00 17.2 -- -- -- -- -- 940.3 -- --
2020-06-13 23:00:00 17.5 -- -- -- -- -- 939.9 -- --
2020-06-13 22:00:00 17.9 -- -- -- -- -- 939.2 -- --
2020-06-13 21:00:00 19.7 -- -- -- -- -- 938.8 -- --
2020-06-13 20:00:00 21.7 -- -- -- -- -- 938.7 -- --
2020-06-13 19:00:00 21.8 -- -- -- -- -- 938.2 -- --
2020-06-13 18:00:00 21.8 -- -- -- -- -- 938.2 -- --
2020-06-13 17:00:00 22.5 -- -- -- -- -- 938.3 -- --
2020-06-13 16:00:00 22.3 -- -- -- -- -- 938.3 -- --
2020-06-13 15:00:00 21.5 -- -- -- -- -- 939 -- --
2020-06-13 14:00:00 20.2 -- -- -- -- -- 938.2 -- --
2020-06-13 13:00:00 19.4 -- -- -- -- -- 938.5 -- --
2020-06-13 12:00:00 18.7 -- -- -- -- -- 938.2 -- --
2020-06-13 11:00:00 16.1 -- -- -- -- -- 937.7 -- --
2020-06-13 10:00:00 14.1 -- -- -- -- -- 937.4 -- --
2020-06-13 09:00:00 11.9 -- -- -- -- -- 936.8 -- --
2020-06-13 08:00:00 10.3 -- -- -- -- -- 936.3 -- --
2020-06-13 07:00:00 10 -- -- -- -- -- 935.2 -- --
2020-06-13 06:00:00 10.6 -- -- -- -- -- 935 -- --
2020-06-13 05:00:00 10.7 -- -- -- -- -- 934.4 -- --
2020-06-13 04:00:00 10.7 -- -- -- -- -- 933.9 -- --
2020-06-13 03:00:00 11 -- -- -- -- -- 934.1 -- --
2020-06-13 02:00:00 11.3 -- -- -- -- -- 934.1 -- --
2020-06-13 01:00:00 11.4 -- -- -- -- -- 934 -- --
2020-06-13 00:00:00 11.6 -- -- -- -- -- 933.7 -- --
2020-06-12 23:00:00 11.7 -- -- -- -- -- 933.3 -- --
2020-06-12 22:00:00 15.5 -- -- -- -- -- 931.7 -- --
2020-06-12 21:00:00 16.7 -- -- -- -- -- 931.3 -- --
2020-06-12 20:00:00 18.4 -- -- -- -- -- 930 -- --
2020-06-12 19:00:00 19.1 -- -- -- -- -- 929.9 -- --
2020-06-12 18:00:00 18.9 -- -- -- -- -- 929.8 -- --
2020-06-12 17:00:00 19.2 -- -- -- -- -- 929.8 -- --
2020-06-12 16:00:00 19.3 -- -- -- -- -- 929.7 -- --
2020-06-12 15:00:00 20.1 -- -- -- -- -- 929.8 -- --
2020-06-12 14:00:00 19.5 -- -- -- -- -- 929.7 -- --
2020-06-12 13:00:00 18 -- -- -- -- -- 929.9 -- --
2020-06-12 12:00:00 17.1 -- -- -- -- -- 929.9 -- --
2020-06-12 11:00:00 15.1 -- -- -- -- -- 928.7 -- --
2020-06-12 10:00:00 13.1 -- -- -- -- -- 929.7 -- --
2020-06-12 09:00:00 11 -- -- -- -- -- 929.5 -- --
2020-06-12 08:00:00 10 -- -- -- -- -- 929.1 -- --
2020-06-12 07:00:00 10.2 -- -- -- -- -- 928.8 -- --
2020-06-12 06:00:00 10.8 -- -- -- -- -- 928.5 -- --
2020-06-12 05:00:00 12.1 -- -- -- -- -- 928.4 -- --
2020-06-12 04:00:00 12.8 -- -- -- -- -- 928.3 -- --
2020-06-12 03:00:00 13.4 -- -- -- -- -- 928.3 -- --
2020-06-12 02:00:00 14.2 -- -- -- -- -- 928.9 -- --
2020-06-12 01:00:00 15.4 -- -- -- -- -- 928.8 -- --
2020-06-12 00:00:00 15.6 -- -- -- -- -- 928.3 -- --
2020-06-11 23:00:00 16.6 -- -- -- -- -- 928.3 -- --
2020-06-11 22:00:00 17 -- -- -- -- -- 927.4 -- --
2020-06-11 21:00:00 19.8 -- -- -- -- -- 927.2 -- --
2020-06-11 20:00:00 21.4 -- -- -- -- -- 926.9 -- --
2020-06-11 19:00:00 22.2 -- -- -- -- -- 927.3 -- --
2020-06-11 18:00:00 22.7 -- -- -- -- -- 927.9 -- --
2020-06-11 17:00:00 22.2 -- -- -- -- -- 928.2 -- --
2020-06-11 16:00:00 22.8 -- -- -- -- -- 928.9 -- --
2020-06-11 15:00:00 21.9 -- -- -- -- -- 929.5 -- --
2020-06-11 14:00:00 23.5 -- -- -- -- -- 930 -- --
2020-06-11 13:00:00 22.8 -- -- -- -- -- 930.5 -- --
2020-06-11 12:00:00 22.1 -- -- -- -- -- 930.9 -- --
2020-06-11 11:00:00 20 -- -- -- -- -- 931.2 -- --
2020-06-11 10:00:00 18.9 -- -- -- -- -- 931.6 -- --
2020-06-11 09:00:00 16.4 -- -- -- -- -- 931.8 -- --
2020-06-11 08:00:00 14.9 -- -- -- -- -- 932.3 -- --
2020-06-11 07:00:00 14.5 -- -- -- -- -- 932.6 -- --
2020-06-11 06:00:00 15.3 -- -- -- -- -- 932.8 -- --
2020-06-11 05:00:00 15.5 -- -- -- -- -- 933.2 -- --
2020-06-11 04:00:00 16.5 -- -- -- -- -- 933 -- --
2020-06-11 03:00:00 17 -- -- -- -- -- 933.2 -- --
2020-06-11 02:00:00 18.2 -- -- -- -- -- 934.5 -- --
2020-06-11 01:00:00 18.6 -- -- -- -- -- 935.3 -- --
2020-06-11 00:00:00 19.9 -- -- -- -- -- 935.1 -- --
2020-06-10 23:00:00 21.2 -- -- -- -- -- 935.3 -- --
2020-06-10 22:00:00 22.1 -- -- -- -- -- 935.2 -- --
2020-06-10 21:00:00 23 -- -- -- -- -- 935.1 -- --
2020-06-10 20:00:00 23.7 -- -- -- -- -- 935.1 -- --
2020-06-10 19:00:00 24.1 -- -- -- -- -- 935.7 -- --
2020-06-10 18:00:00 24.8 -- -- -- -- -- 936.3 -- --
2020-06-10 17:00:00 25.3 -- -- -- -- -- 936.8 -- --
2020-06-10 16:00:00 25 -- -- -- -- -- 937.4 -- --
2020-06-10 15:00:00 24.5 -- -- -- -- -- 938.2 -- --
2020-06-10 14:00:00 23.8 -- -- -- -- -- 938.8 -- --
2020-06-10 13:00:00 21.2 -- -- -- -- -- 939.4 -- --
2020-06-10 12:00:00 19.2 -- -- -- -- -- 939.9 -- --
2020-06-10 11:00:00 16.6 -- -- -- -- -- 940.2 -- --
2020-06-10 10:00:00 15.4 -- -- -- -- -- 940.4 -- --
2020-06-10 09:00:00 13.5 -- -- -- -- -- 940.3 -- --
2020-06-10 08:00:00 12.1 -- -- -- -- -- 940.3 -- --
2020-06-10 07:00:00 11.8 -- -- -- -- -- 940.4 -- --
2020-06-10 06:00:00 12.2 -- -- -- -- -- 940.3 -- --
2020-06-10 05:00:00 12.8 -- -- -- -- -- 940 -- --
2020-06-10 04:00:00 13.5 -- -- -- -- -- 940 -- --
2020-06-10 03:00:00 13.9 -- -- -- -- -- 940.3 -- --
2020-06-10 02:00:00 14.7 -- -- -- -- -- 940.2 -- --
2020-06-10 01:00:00 15.5 -- -- -- -- -- 940.3 -- --
2020-06-10 00:00:00 16.5 -- -- -- -- -- 940.7 -- --
2020-06-09 23:00:00 17.4 -- -- -- -- -- 940 -- --
2020-06-09 22:00:00 18.1 -- -- -- -- -- 939.3 -- --
2020-06-09 21:00:00 19.2 -- -- -- -- -- 938.9 -- --
2020-06-09 20:00:00 20.5 -- -- -- -- -- 938 -- --
2020-06-09 19:00:00 21.2 -- -- -- -- -- 938.7 -- --
2020-06-09 18:00:00 21.8 -- -- -- -- -- 939.1 -- --
2020-06-09 17:00:00 22.8 -- -- -- -- -- 939.2 -- --
2020-06-09 16:00:00 23.4 -- -- -- -- -- 939.5 -- --
2020-06-09 15:00:00 23 -- -- -- -- -- 939 -- --
2020-06-09 14:00:00 20.9 -- -- -- -- -- 940 -- --
2020-06-09 13:00:00 19.9 -- -- -- -- -- 940.5 -- --
2020-06-09 12:00:00 17.7 -- -- -- -- -- 940.9 -- --
2020-06-09 11:00:00 15.6 -- -- -- -- -- 941 -- --
2020-06-09 10:00:00 14.6 -- -- -- -- -- 941.1 -- --
2020-06-09 09:00:00 -- -- -- -- -- -- -- -- --
2020-06-09 08:00:00 10.9 0 Calma 18 Nordeste -- 940.6 -- 58
2020-06-09 07:00:00 10.4 0 Calma 18 Este -- 940.2 -- 58
2020-06-09 06:00:00 10.8 0 Calma 18 Este -- 940 -- 58
2020-06-09 05:00:00 11.4 0 Calma 78 Este -- 939.7 -- 58
2020-06-09 04:00:00 11.6 11 Este 96 Este -- -- -- 0
2020-06-09 03:00:00 12.3 0 Calma 94 Este -- -- -- 45
2020-06-09 02:00:00 13.1 15 Este 71 Este -- -- -- 0
2020-06-09 01:00:00 14.3 17 Nordeste 18 Nordeste -- -- -- 0
2020-06-09 00:00:00 16 17 Nordeste 44 Nordeste -- -- -- 0
2020-06-08 23:00:00 16.8 17 Nordeste 82 Norte -- -- -- 0
2020-06-08 22:00:00 17.5 19 Nordeste 136 Norte -- -- -- 0
2020-06-08 21:00:00 18.7 17 Nordeste -- -- -- -- -- 0
2020-06-08 20:00:00 19.7 17 Nordeste 70 Este -- -- -- 0
2020-06-08 19:00:00 19.8 10 Nordeste 161 Norte -- -- -- 0
2020-06-08 18:00:00 20.2 12 Nordeste 55 Nordeste -- -- -- 0
2020-06-08 17:00:00 21.4 4 Este 18 Nordeste -- 936.9 -- 28
2020-06-08 16:00:00 21.4 5 Nordeste 16 Nordeste -- 937.3 -- 30
2020-06-08 15:00:00 21.5 5 Norte 19 Nordeste -- 937.8 -- 31
2020-06-08 14:00:00 21 4 Norte 21 Este -- 937.8 -- 32
2020-06-08 13:00:00 19.8 4 Norte 21 Nordeste -- 937.7 -- 35
2020-06-08 12:00:00 18.4 6 Nordeste 25 Nordeste -- 937.6 -- 37
2020-06-08 11:00:00 15.6 8 Nordeste 24 Este -- 937.5 -- 43
2020-06-08 10:00:00 13.3 9 Nordeste 21 Nordeste -- 937.5 -- 51
2020-06-08 09:00:00 11.3 9 Este 23 Nordeste -- 937 -- 54
2020-06-08 08:00:00 11.1 12 Este 30 Este -- 936.3 -- 54
2020-06-08 07:00:00 11 10 Nordeste 31 Nordeste -- 935.6 -- 57
2020-06-08 06:00:00 11.3 14 Nordeste 28 Nordeste -- 935.3 -- 58
2020-06-08 05:00:00 11.7 10 Nordeste 28 Nordeste -- 935.2 -- 59
2020-06-08 04:00:00 12.1 9 Nordeste 30 Nordeste -- 935.3 -- 59
2020-06-08 03:00:00 12.5 14 Este 29 Este -- 935.3 -- 60
2020-06-08 02:00:00 13 17 Nordeste 32 Nordeste -- 935.5 -- 66
2020-06-08 01:00:00 13.8 17 Nordeste 32 Nordeste -- 935.3 -- 66
2020-06-08 00:00:00 14.8 13 Nordeste 27 Nordeste -- 935.1 -- 68
2020-06-07 23:00:00 15.8 10 Este 24 Este -- 934.5 -- 74
2020-06-07 22:00:00 17.2 9 Este 30 Nordeste -- 933.3 -- 59
2020-06-07 21:00:00 17 13 Nordeste 30 Nordeste -- 933 -- 69
2020-06-07 20:00:00 17.5 5 Noroeste 27 Noroeste -- 932.5 -- 72
2020-06-07 19:00:00 20.2 7 Sudoeste 30 Oeste -- 931.9 -- 57
2020-06-07 18:00:00 22.5 12 Noroeste 35 Oeste -- 931.4 -- 41
2020-06-07 17:00:00 24.4 10 Oeste 38 Sudoeste -- 931.5 -- 40
2020-06-07 16:00:00 23.3 13 Oeste 35 Sudoeste -- 931.6 -- 44
2020-06-07 15:00:00 23.1 9 Oeste 25 Sudoeste -- 931.9 -- 43
2020-06-07 14:00:00 22.6 12 Sudoeste 31 Sudoeste -- 932.2 -- 41
2020-06-07 13:00:00 22.8 11 Oeste 24 Sudoeste -- 932.1 -- 43
2020-06-07 12:00:00 22.3 7 Sudoeste 19 Sudoeste -- 932.1 -- 46
2020-06-07 11:00:00 19.5 6 Sudoeste 18 Sudoeste -- 932.1 -- 52
2020-06-07 10:00:00 17.5 3 Sudoeste 13 Sudoeste -- 932 -- 59
2020-06-07 09:00:00 16 0 Calma 8 Oeste -- 930.7 -- 64
2020-06-07 08:00:00 15.2 4 Oeste 12 Oeste -- 930.2 -- 64
2020-06-07 07:00:00 15.2 4 Oeste 13 Oeste -- 929.9 -- 60
2020-06-07 06:00:00 15.7 6 Oeste 11 Oeste -- 931 -- 59
2020-06-07 05:00:00 16.6 3 Este 6 Sudeste -- 930.7 -- 56
2020-06-07 04:00:00 17.4 0 Calma 9 Norte -- 930.4 -- 50
2020-06-07 03:00:00 17.2 0 Calma 12 Oeste -- 930.1 -- 42
2020-06-07 02:00:00 18.3 4 Oeste 19 Noroeste -- 930.4 -- 38
2020-06-07 01:00:00 19.3 8 Noroeste 26 Sudoeste -- 930.7 -- 35
2020-06-07 00:00:00 20.2 10 Oeste 30 Oeste -- 930.5 -- 34
2020-06-06 23:00:00 20.8 13 Oeste 30 Oeste -- 930.7 -- 35
2020-06-06 22:00:00 21.7 10 Oeste 34 Oeste -- 930.1 -- 35
2020-06-06 21:00:00 22.3 14 Oeste 42 Oeste -- 929.8 -- 34
2020-06-06 20:00:00 24.2 17 Oeste 46 Oeste -- 929.8 -- 30
2020-06-06 19:00:00 25.1 18 Oeste 49 Oeste -- 930.1 -- 29
2020-06-06 18:00:00 25.7 18 Sudoeste 45 Oeste -- 930.6 -- 30
2020-06-06 17:00:00 26.2 15 Oeste 40 Oeste -- 930.9 -- 30
2020-06-06 16:00:00 26.9 10 Sudoeste 40 Sudoeste -- 931.6 -- 30
2020-06-06 15:00:00 26.2 14 Sudoeste 38 Sudoeste -- 932 -- 31
2020-06-06 14:00:00 25.7 13 Sudoeste 36 Oeste -- 933.2 -- 35
2020-06-06 13:00:00 25.1 10 Sudoeste 29 Oeste -- 933.3 -- 36
2020-06-06 12:00:00 23.5 12 Oeste 37 Sudoeste -- 934.2 -- 41
2020-06-06 11:00:00 21.6 15 Sudoeste 32 Sudoeste -- 934.5 -- 45
2020-06-06 10:00:00 20.1 12 Sudoeste 25 Sudoeste -- 934.6 -- 53
2020-06-06 09:00:00 17.6 0 Calma 13 Sudoeste -- 934.4 -- 61
2020-06-06 08:00:00 16 3 Sudoeste 11 Sur -- 934.1 -- 65
2020-06-06 07:00:00 15.8 0 Calma 12 Oeste -- 933.7 -- 59
2020-06-06 06:00:00 16 3 Oeste 6 Noroeste -- 933.6 -- 56
2020-06-06 05:00:00 17.1 4 Oeste 15 Oeste -- 933.4 -- 52
2020-06-06 04:00:00 17.9 8 Oeste 22 Oeste -- 934.1 -- 50
2020-06-06 03:00:00 18.9 12 Oeste 23 Noroeste -- 934.6 -- 46
2020-06-06 02:00:00 18.9 10 Oeste 22 Oeste -- 935.1 -- 52
2020-06-06 01:00:00 19.4 4 Oeste 13 Oeste -- 934.7 -- 49
2020-06-06 00:00:00 20.3 3 Oeste 13 Oeste -- 934.9 -- 44